AAL1224 KLAX-KDFW
Flight info
| Callsign | AAL1224 |
|---|---|
| Flight time | 2h 36m |
| Altitude | 37000 |
| Route | DOTSS2 CNERY BLH J169 TFD J50 SSO J4 INK GEEKY SOCKK4 |
| Aircraft | A321/M-SDE3FGHIRWY/LB1 |
Departure
| Time | 2026-05-07 16:13 |
|---|---|
| Airport | Los Angeles International Airport (KLAX) |
Arrival
| Time | 2026-05-07 18:49 |
|---|---|
| Airport | Dallas Fort Worth International Airport (KDFW) |
| Time | Latitude | Longitude | Altitude | Speed | Heading |
|---|---|---|---|---|---|
| 2026-05-07 15:57 | 33.93979 | -118.40733 | 125 ft | 0 kts | 70° |
| 2026-05-07 16:03 | 33.93977 | -118.40740 | 125 ft | 2 kts | 70° |
| 2026-05-07 16:03 | 33.93971 | -118.40758 | 126 ft | 2 kts | 70° |
| 2026-05-07 16:03 | 33.93966 | -118.40775 | 126 ft | 2 kts | 70° |
| 2026-05-07 16:04 | 33.93961 | -118.40791 | 127 ft | 2 kts | 78° |
| 2026-05-07 16:04 | 33.93963 | -118.40809 | 127 ft | 2 kts | 126° |
| 2026-05-07 16:04 | 33.93975 | -118.40820 | 127 ft | 1 kts | 166° |
| 2026-05-07 16:04 | 33.93981 | -118.40820 | 127 ft | 1 kts | 178° |
| 2026-05-07 16:05 | 33.93984 | -118.40820 | 127 ft | 0 kts | 174° |
| 2026-05-07 16:07 | 33.93979 | -118.40820 | 127 ft | 2 kts | 174° |
| 2026-05-07 16:07 | 33.93933 | -118.40813 | 127 ft | 8 kts | 174° |
| 2026-05-07 16:07 | 33.93881 | -118.40774 | 127 ft | 9 kts | 131° |
| 2026-05-07 16:08 | 33.93824 | -118.40729 | 127 ft | 10 kts | 137° |
| 2026-05-07 16:08 | 33.93814 | -118.40635 | 126 ft | 15 kts | 82° |
| 2026-05-07 16:08 | 33.93833 | -118.40455 | 123 ft | 26 kts | 83° |
| 2026-05-07 16:08 | 33.93857 | -118.40216 | 120 ft | 29 kts | 83° |
| 2026-05-07 16:09 | 33.93882 | -118.39977 | 117 ft | 28 kts | 83° |
| 2026-05-07 16:09 | 33.93907 | -118.39736 | 112 ft | 28 kts | 83° |
| 2026-05-07 16:09 | 33.93930 | -118.39501 | 111 ft | 27 kts | 83° |
| 2026-05-07 16:09 | 33.93954 | -118.39269 | 107 ft | 27 kts | 83° |
| 2026-05-07 16:10 | 33.93977 | -118.39044 | 105 ft | 27 kts | 83° |
| 2026-05-07 16:10 | 33.94000 | -118.38821 | 104 ft | 26 kts | 83° |
| 2026-05-07 16:10 | 33.94022 | -118.38608 | 104 ft | 25 kts | 83° |
| 2026-05-07 16:10 | 33.94040 | -118.38426 | 103 ft | 21 kts | 83° |
| 2026-05-07 16:11 | 33.94059 | -118.38244 | 101 ft | 20 kts | 83° |
| 2026-05-07 16:11 | 33.94073 | -118.38108 | 101 ft | 13 kts | 83° |
| 2026-05-07 16:11 | 33.94077 | -118.38037 | 101 ft | 2 kts | 103° |
| 2026-05-07 16:11 | 33.94075 | -118.38032 | 101 ft | 0 kts | 110° |
| 2026-05-07 16:12 | 33.94061 | -118.38013 | 101 ft | 7 kts | 151° |
| 2026-05-07 16:12 | 33.93998 | -118.38017 | 101 ft | 10 kts | 225° |
| 2026-05-07 16:12 | 33.93957 | -118.38290 | 101 ft | 67 kts | 263° |
| 2026-05-07 16:12 | 33.93872 | -118.39123 | 107 ft | 131 kts | 263° |
| 2026-05-07 16:13 | 33.93740 | -118.40408 | 259 ft | 168 kts | 263° |
| 2026-05-07 16:13 | 33.93612 | -118.41758 | 896 ft | 165 kts | 263° |
| 2026-05-07 16:13 | 33.93471 | -118.43134 | 1391 ft | 169 kts | 263° |
| 2026-05-07 16:13 | 33.93316 | -118.44588 | 1644 ft | 181 kts | 263° |
| 2026-05-07 16:14 | 33.92974 | -118.46093 | 1899 ft | 195 kts | 244° |
| 2026-05-07 16:14 | 33.92181 | -118.47488 | 2172 ft | 208 kts | 233° |
| 2026-05-07 16:14 | 33.91243 | -118.48891 | 2449 ft | 223 kts | 232° |
| 2026-05-07 16:14 | 33.90196 | -118.50388 | 2677 ft | 243 kts | 230° |
| 2026-05-07 16:15 | 33.89057 | -118.51975 | 3005 ft | 260 kts | 230° |
| 2026-05-07 16:15 | 33.87846 | -118.53673 | 3555 ft | 269 kts | 231° |
| 2026-05-07 16:15 | 33.86556 | -118.55277 | 4251 ft | 272 kts | 216° |
| 2026-05-07 16:15 | 33.84801 | -118.56054 | 4959 ft | 275 kts | 184° |
| 2026-05-07 16:16 | 33.82898 | -118.55772 | 5721 ft | 275 kts | 166° |
| 2026-05-07 16:16 | 33.81034 | -118.55215 | 6462 ft | 278 kts | 165° |
| 2026-05-07 16:16 | 33.79150 | -118.54663 | 7202 ft | 281 kts | 166° |
| 2026-05-07 16:16 | 33.77253 | -118.54130 | 7909 ft | 285 kts | 166° |
| 2026-05-07 16:17 | 33.75299 | -118.53593 | 8611 ft | 289 kts | 166° |
| 2026-05-07 16:17 | 33.73331 | -118.53059 | 9292 ft | 293 kts | 165° |
| 2026-05-07 16:17 | 33.71377 | -118.52439 | 9938 ft | 294 kts | 154° |
| 2026-05-07 16:17 | 33.69714 | -118.51040 | 10451 ft | 296 kts | 129° |
| 2026-05-07 16:18 | 33.68672 | -118.48903 | 10758 ft | 306 kts | 108° |
| 2026-05-07 16:18 | 33.67971 | -118.46404 | 11062 ft | 322 kts | 106° |
| 2026-05-07 16:18 | 33.67247 | -118.43816 | 11419 ft | 335 kts | 107° |
| 2026-05-07 16:18 | 33.66478 | -118.41148 | 12005 ft | 340 kts | 107° |
| 2026-05-07 16:19 | 33.65691 | -118.38472 | 12649 ft | 342 kts | 107° |
| 2026-05-07 16:19 | 33.64976 | -118.35763 | 13270 ft | 344 kts | 101° |
| 2026-05-07 16:19 | 33.64567 | -118.33067 | 13858 ft | 344 kts | 94° |
| 2026-05-07 16:19 | 33.64440 | -118.30183 | 14454 ft | 345 kts | 88° |
| 2026-05-07 16:20 | 33.64436 | -118.27292 | 15033 ft | 348 kts | 87° |
| 2026-05-07 16:20 | 33.64447 | -118.24417 | 15589 ft | 351 kts | 87° |
| 2026-05-07 16:20 | 33.64458 | -118.21472 | 16138 ft | 354 kts | 87° |
| 2026-05-07 16:20 | 33.64465 | -118.18503 | 16677 ft | 357 kts | 86° |
| 2026-05-07 16:21 | 33.64469 | -118.15502 | 17210 ft | 360 kts | 86° |
| 2026-05-07 16:21 | 33.64470 | -118.12488 | 17734 ft | 363 kts | 86° |
| 2026-05-07 16:21 | 33.64470 | -118.09463 | 18237 ft | 366 kts | 86° |
| 2026-05-07 16:21 | 33.64470 | -118.06409 | 18728 ft | 370 kts | 86° |
| 2026-05-07 16:22 | 33.64468 | -118.03320 | 19210 ft | 373 kts | 86° |
| 2026-05-07 16:22 | 33.64465 | -118.00214 | 19680 ft | 376 kts | 87° |
| 2026-05-07 16:22 | 33.64460 | -117.97083 | 20148 ft | 379 kts | 87° |
| 2026-05-07 16:22 | 33.64453 | -117.93913 | 20622 ft | 381 kts | 87° |
| 2026-05-07 16:23 | 33.64446 | -117.90705 | 21083 ft | 384 kts | 87° |
| 2026-05-07 16:23 | 33.64439 | -117.87528 | 21518 ft | 387 kts | 86° |
| 2026-05-07 16:23 | 33.64430 | -117.84302 | 21948 ft | 389 kts | 87° |
| 2026-05-07 16:23 | 33.64287 | -117.81020 | 22361 ft | 394 kts | 92° |
| 2026-05-07 16:24 | 33.63876 | -117.77758 | 22768 ft | 399 kts | 98° |
| 2026-05-07 16:24 | 33.63202 | -117.74524 | 23167 ft | 404 kts | 102° |
| 2026-05-07 16:24 | 33.62418 | -117.71301 | 23570 ft | 406 kts | 102° |
| 2026-05-07 16:24 | 33.61605 | -117.68033 | 23942 ft | 409 kts | 103° |
| 2026-05-07 16:25 | 33.60784 | -117.64741 | 24295 ft | 413 kts | 103° |
| 2026-05-07 16:25 | 33.59967 | -117.61450 | 24662 ft | 415 kts | 102° |
| 2026-05-07 16:25 | 33.59143 | -117.58125 | 25020 ft | 418 kts | 102° |
| 2026-05-07 16:25 | 33.58308 | -117.54758 | 25372 ft | 420 kts | 102° |
| 2026-05-07 16:26 | 33.57481 | -117.51421 | 25714 ft | 423 kts | 102° |
| 2026-05-07 16:26 | 33.56636 | -117.48012 | 26056 ft | 425 kts | 102° |
| 2026-05-07 16:26 | 33.55786 | -117.44590 | 26392 ft | 427 kts | 102° |
| 2026-05-07 16:26 | 33.54934 | -117.41164 | 26724 ft | 430 kts | 102° |
| 2026-05-07 16:27 | 33.54079 | -117.37727 | 27041 ft | 432 kts | 102° |
| 2026-05-07 16:27 | 33.53215 | -117.34263 | 27350 ft | 434 kts | 103° |
| 2026-05-07 16:27 | 33.52355 | -117.30822 | 27658 ft | 436 kts | 103° |
| 2026-05-07 16:27 | 33.51508 | -117.27300 | 27968 ft | 437 kts | 101° |
| 2026-05-07 16:28 | 33.50880 | -117.23737 | 28262 ft | 437 kts | 96° |
| 2026-05-07 16:28 | 33.50508 | -117.20155 | 28546 ft | 436 kts | 91° |
| 2026-05-07 16:28 | 33.50375 | -117.16560 | 28838 ft | 436 kts | 88° |
| 2026-05-07 16:28 | 33.50321 | -117.12914 | 29116 ft | 438 kts | 87° |
| 2026-05-07 16:29 | 33.50281 | -117.09240 | 29382 ft | 440 kts | 87° |
| 2026-05-07 16:29 | 33.50241 | -117.05611 | 29637 ft | 442 kts | 87° |
| 2026-05-07 16:29 | 33.50195 | -117.01926 | 29891 ft | 444 kts | 87° |
| 2026-05-07 16:29 | 33.50146 | -116.98253 | 30208 ft | 444 kts | 87° |
| 2026-05-07 16:30 | 33.50092 | -116.94540 | 30583 ft | 442 kts | 87° |
| 2026-05-07 16:30 | 33.50038 | -116.90903 | 30919 ft | 442 kts | 87° |
| 2026-05-07 16:30 | 33.49982 | -116.87211 | 31214 ft | 442 kts | 87° |
| 2026-05-07 16:30 | 33.49926 | -116.83552 | 31518 ft | 442 kts | 87° |
| 2026-05-07 16:31 | 33.49869 | -116.79887 | 31844 ft | 441 kts | 86° |
| 2026-05-07 16:31 | 33.49810 | -116.76224 | 32155 ft | 440 kts | 86° |
| 2026-05-07 16:31 | 33.49751 | -116.72574 | 32466 ft | 439 kts | 86° |
| 2026-05-07 16:31 | 33.49691 | -116.68936 | 32751 ft | 439 kts | 86° |
| 2026-05-07 16:32 | 33.49630 | -116.65282 | 33026 ft | 439 kts | 86° |
| 2026-05-07 16:32 | 33.49568 | -116.61661 | 33317 ft | 438 kts | 86° |
| 2026-05-07 16:32 | 33.49504 | -116.58023 | 33603 ft | 437 kts | 86° |
| 2026-05-07 16:32 | 33.49440 | -116.54408 | 33855 ft | 437 kts | 86° |
| 2026-05-07 16:33 | 33.49375 | -116.50779 | 34103 ft | 437 kts | 86° |
| 2026-05-07 16:33 | 33.49307 | -116.47148 | 34359 ft | 437 kts | 86° |
| 2026-05-07 16:33 | 33.49239 | -116.43512 | 34619 ft | 436 kts | 86° |
| 2026-05-07 16:33 | 33.49177 | -116.39883 | 34873 ft | 435 kts | 86° |
| 2026-05-07 16:34 | 33.49125 | -116.36266 | 35101 ft | 435 kts | 86° |
| 2026-05-07 16:34 | 33.49076 | -116.32623 | 35316 ft | 435 kts | 86° |
| 2026-05-07 16:34 | 33.49023 | -116.29005 | 35496 ft | 436 kts | 86° |
| 2026-05-07 16:34 | 33.48969 | -116.25394 | 35641 ft | 437 kts | 86° |
| 2026-05-07 16:35 | 33.48911 | -116.21778 | 35796 ft | 438 kts | 86° |
| 2026-05-07 16:35 | 33.48853 | -116.18102 | 35936 ft | 439 kts | 86° |
| 2026-05-07 16:35 | 33.48797 | -116.14451 | 36078 ft | 440 kts | 86° |
| 2026-05-07 16:35 | 33.48837 | -116.10815 | 36215 ft | 439 kts | 83° |
| 2026-05-07 16:36 | 33.49050 | -116.07174 | 36342 ft | 437 kts | 79° |
| 2026-05-07 16:36 | 33.49433 | -116.03617 | 36474 ft | 436 kts | 76° |
| 2026-05-07 16:36 | 33.49995 | -116.00053 | 36587 ft | 435 kts | 73° |
| 2026-05-07 16:36 | 33.50724 | -115.96554 | 36693 ft | 434 kts | 69° |
| 2026-05-07 16:37 | 33.51620 | -115.93110 | 36805 ft | 433 kts | 67° |
| 2026-05-07 16:37 | 33.52605 | -115.89713 | 36924 ft | 433 kts | 66° |
| 2026-05-07 16:37 | 33.53614 | -115.86279 | 36983 ft | 435 kts | 66° |
| 2026-05-07 16:38 | 33.55608 | -115.79493 | 37011 ft | 435 kts | 66° |
| 2026-05-07 16:38 | 33.57618 | -115.72610 | 37038 ft | 435 kts | 66° |
| 2026-05-07 16:39 | 33.59595 | -115.65805 | 37056 ft | 435 kts | 66° |
| 2026-05-07 16:39 | 33.60379 | -115.62266 | 37050 ft | 441 kts | 77° |
| 2026-05-07 16:39 | 33.60700 | -115.58645 | 37064 ft | 443 kts | 81° |
| 2026-05-07 16:40 | 33.60939 | -115.51254 | 37061 ft | 445 kts | 84° |
| 2026-05-07 16:40 | 33.61034 | -115.43885 | 37055 ft | 444 kts | 84° |
| 2026-05-07 16:41 | 33.61145 | -115.36495 | 37045 ft | 445 kts | 84° |
| 2026-05-07 16:41 | 33.61045 | -115.29058 | 37032 ft | 446 kts | 87° |
| 2026-05-07 16:42 | 33.60873 | -115.21660 | 37026 ft | 446 kts | 87° |
| 2026-05-07 16:42 | 33.60683 | -115.14204 | 37019 ft | 445 kts | 87° |
| 2026-05-07 16:43 | 33.60486 | -115.06802 | 37016 ft | 445 kts | 87° |
| 2026-05-07 16:43 | 33.60282 | -114.99406 | 37007 ft | 445 kts | 88° |
| 2026-05-07 16:44 | 33.60075 | -114.92050 | 37000 ft | 445 kts | 88° |
| 2026-05-07 16:44 | 33.59861 | -114.84638 | 36991 ft | 444 kts | 87° |
| 2026-05-07 16:45 | 33.59634 | -114.77232 | 36986 ft | 444 kts | 89° |
| 2026-05-07 16:45 | 33.59069 | -114.69879 | 36980 ft | 445 kts | 91° |
| 2026-05-07 16:46 | 33.58410 | -114.62517 | 36981 ft | 444 kts | 91° |
| 2026-05-07 16:46 | 33.57749 | -114.55157 | 36982 ft | 444 kts | 91° |
| 2026-05-07 16:47 | 33.57085 | -114.47809 | 36981 ft | 444 kts | 91° |
| 2026-05-07 16:47 | 33.56421 | -114.40484 | 36983 ft | 443 kts | 91° |
| 2026-05-07 16:48 | 33.55751 | -114.33136 | 36987 ft | 443 kts | 92° |
| 2026-05-07 16:48 | 33.55081 | -114.25834 | 36991 ft | 443 kts | 92° |
| 2026-05-07 16:49 | 33.54406 | -114.18515 | 37001 ft | 442 kts | 92° |
| 2026-05-07 16:49 | 33.53730 | -114.11245 | 37007 ft | 441 kts | 92° |
| 2026-05-07 16:50 | 33.53045 | -114.03933 | 37013 ft | 442 kts | 92° |
| 2026-05-07 16:50 | 33.52358 | -113.96644 | 37023 ft | 441 kts | 92° |
| 2026-05-07 16:51 | 33.51668 | -113.89371 | 37023 ft | 441 kts | 92° |
| 2026-05-07 16:51 | 33.50970 | -113.82063 | 37016 ft | 441 kts | 92° |
| 2026-05-07 16:52 | 33.50276 | -113.74823 | 37018 ft | 440 kts | 92° |
| 2026-05-07 16:52 | 33.49575 | -113.67561 | 37014 ft | 440 kts | 92° |
| 2026-05-07 16:53 | 33.48867 | -113.60292 | 37017 ft | 439 kts | 92° |
| 2026-05-07 16:53 | 33.48161 | -113.53084 | 37019 ft | 438 kts | 92° |
| 2026-05-07 16:54 | 33.47446 | -113.45817 | 37018 ft | 438 kts | 92° |
| 2026-05-07 16:54 | 33.46420 | -113.38648 | 37020 ft | 441 kts | 98° |
| 2026-05-07 16:55 | 33.44724 | -113.31596 | 37012 ft | 445 kts | 105° |
| 2026-05-07 16:55 | 33.42362 | -113.24748 | 37012 ft | 448 kts | 111° |
| 2026-05-07 16:56 | 33.39703 | -113.18023 | 37012 ft | 446 kts | 111° |
| 2026-05-07 16:56 | 33.35736 | -113.08012 | 37011 ft | 446 kts | 111° |
| 2026-05-07 16:57 | 33.33087 | -113.01331 | 37003 ft | 445 kts | 110° |
| 2026-05-07 16:57 | 33.30447 | -112.94677 | 37000 ft | 445 kts | 111° |
| 2026-05-07 16:58 | 33.27785 | -112.87979 | 36995 ft | 444 kts | 111° |
| 2026-05-07 16:58 | 33.25148 | -112.81364 | 36990 ft | 443 kts | 111° |
| 2026-05-07 16:59 | 33.22511 | -112.74762 | 36984 ft | 442 kts | 111° |
| 2026-05-07 16:59 | 33.19868 | -112.68148 | 36972 ft | 442 kts | 111° |
| 2026-05-07 17:00 | 33.17213 | -112.61526 | 36970 ft | 441 kts | 111° |
| 2026-05-07 17:00 | 33.14576 | -112.54954 | 36973 ft | 442 kts | 111° |
| 2026-05-07 17:01 | 33.11917 | -112.48348 | 36984 ft | 442 kts | 111° |
| 2026-05-07 17:01 | 33.09274 | -112.41789 | 36988 ft | 441 kts | 111° |
| 2026-05-07 17:02 | 33.06620 | -112.35216 | 36980 ft | 440 kts | 111° |
| 2026-05-07 17:02 | 33.03975 | -112.28677 | 37003 ft | 439 kts | 112° |
| 2026-05-07 17:03 | 33.01333 | -112.22163 | 36806 ft | 439 kts | 112° |
| 2026-05-07 17:03 | 33.00008 | -112.18895 | 37049 ft | 440 kts | 112° |
| 2026-05-07 17:03 | 32.98665 | -112.15586 | 36905 ft | 440 kts | 112° |
| 2026-05-07 17:04 | 32.96009 | -112.09058 | 36970 ft | 442 kts | 112° |
| 2026-05-07 17:04 | 32.94667 | -112.05759 | 37099 ft | 442 kts | 113° |
| 2026-05-07 17:04 | 32.93332 | -112.02490 | 37021 ft | 441 kts | 113° |
| 2026-05-07 17:05 | 32.91999 | -111.99229 | 36910 ft | 441 kts | 113° |
| 2026-05-07 17:05 | 32.90657 | -111.95923 | 37054 ft | 441 kts | 112° |
| 2026-05-07 17:05 | 32.88370 | -111.89226 | 36995 ft | 437 kts | 106° |
| 2026-05-07 17:06 | 32.86678 | -111.82304 | 36997 ft | 436 kts | 103° |
| 2026-05-07 17:06 | 32.85136 | -111.75341 | 36989 ft | 437 kts | 103° |
| 2026-05-07 17:07 | 32.83592 | -111.68381 | 36998 ft | 436 kts | 103° |
| 2026-05-07 17:07 | 32.82036 | -111.61409 | 37001 ft | 437 kts | 103° |
| 2026-05-07 17:08 | 32.80482 | -111.54470 | 36968 ft | 437 kts | 103° |
| 2026-05-07 17:08 | 32.78911 | -111.47472 | 37006 ft | 437 kts | 104° |
| 2026-05-07 17:09 | 32.77350 | -111.40538 | 37015 ft | 437 kts | 104° |
| 2026-05-07 17:09 | 32.75774 | -111.33569 | 37028 ft | 438 kts | 105° |
| 2026-05-07 17:10 | 32.74192 | -111.26580 | 37008 ft | 438 kts | 105° |
| 2026-05-07 17:10 | 32.72602 | -111.19576 | 37028 ft | 440 kts | 105° |
| 2026-05-07 17:11 | 32.71010 | -111.12588 | 37060 ft | 442 kts | 105° |
| 2026-05-07 17:11 | 32.69403 | -111.05563 | 37084 ft | 442 kts | 105° |
| 2026-05-07 17:12 | 32.67793 | -110.98537 | 37090 ft | 441 kts | 106° |
| 2026-05-07 17:12 | 32.66190 | -110.91559 | 37124 ft | 442 kts | 105° |
| 2026-05-07 17:13 | 32.64577 | -110.84546 | 37114 ft | 442 kts | 106° |
| 2026-05-07 17:13 | 32.62950 | -110.77500 | 37160 ft | 442 kts | 106° |
| 2026-05-07 17:14 | 32.61336 | -110.70527 | 37157 ft | 442 kts | 107° |
| 2026-05-07 17:14 | 32.59702 | -110.63482 | 37166 ft | 444 kts | 107° |
| 2026-05-07 17:15 | 32.58066 | -110.56476 | 37123 ft | 444 kts | 107° |
| 2026-05-07 17:15 | 32.56412 | -110.49393 | 37133 ft | 444 kts | 107° |
| 2026-05-07 17:16 | 32.54773 | -110.42399 | 37121 ft | 445 kts | 107° |
| 2026-05-07 17:16 | 32.53114 | -110.35339 | 37149 ft | 446 kts | 107° |
| 2026-05-07 17:17 | 32.51456 | -110.28297 | 37159 ft | 446 kts | 108° |
| 2026-05-07 17:17 | 32.49786 | -110.21225 | 37163 ft | 448 kts | 108° |
| 2026-05-07 17:18 | 32.48108 | -110.14140 | 37173 ft | 449 kts | 109° |
| 2026-05-07 17:18 | 32.46415 | -110.07019 | 37166 ft | 450 kts | 109° |
| 2026-05-07 17:19 | 32.44717 | -109.99886 | 37151 ft | 451 kts | 109° |
| 2026-05-07 17:19 | 32.43017 | -109.92760 | 37145 ft | 451 kts | 109° |
| 2026-05-07 17:20 | 32.41318 | -109.85662 | 37180 ft | 451 kts | 109° |
| 2026-05-07 17:20 | 32.39608 | -109.78549 | 37179 ft | 451 kts | 109° |
| 2026-05-07 17:21 | 32.37890 | -109.71408 | 37190 ft | 452 kts | 109° |
| 2026-05-07 17:21 | 32.36171 | -109.64286 | 37169 ft | 452 kts | 110° |
| 2026-05-07 17:22 | 32.34438 | -109.57126 | 37175 ft | 454 kts | 110° |
| 2026-05-07 17:22 | 32.32707 | -109.49984 | 37159 ft | 455 kts | 110° |
| 2026-05-07 17:23 | 32.30956 | -109.42792 | 37148 ft | 457 kts | 110° |
| 2026-05-07 17:23 | 32.29201 | -109.35601 | 37162 ft | 457 kts | 110° |
| 2026-05-07 17:24 | 32.27508 | -109.28365 | 37161 ft | 460 kts | 108° |
| 2026-05-07 17:24 | 32.26398 | -109.20905 | 37158 ft | 465 kts | 102° |
| 2026-05-07 17:25 | 32.25674 | -109.13308 | 37169 ft | 466 kts | 101° |
| 2026-05-07 17:25 | 32.24966 | -109.05743 | 37177 ft | 467 kts | 101° |
| 2026-05-07 17:26 | 32.24240 | -108.98109 | 37189 ft | 469 kts | 101° |
| 2026-05-07 17:26 | 32.23505 | -108.90498 | 37185 ft | 471 kts | 101° |
| 2026-05-07 17:27 | 32.22760 | -108.82812 | 37186 ft | 471 kts | 102° |
| 2026-05-07 17:27 | 32.22009 | -108.75146 | 37184 ft | 472 kts | 102° |
| 2026-05-07 17:28 | 32.21247 | -108.67416 | 37179 ft | 472 kts | 102° |
| 2026-05-07 17:28 | 32.20488 | -108.59737 | 37184 ft | 473 kts | 102° |
| 2026-05-07 17:29 | 32.19721 | -108.52048 | 37195 ft | 474 kts | 102° |
| 2026-05-07 17:29 | 32.18943 | -108.44319 | 37202 ft | 476 kts | 102° |
| 2026-05-07 17:30 | 32.18163 | -108.36589 | 37203 ft | 477 kts | 102° |
| 2026-05-07 17:30 | 32.17376 | -108.28840 | 37211 ft | 478 kts | 103° |
| 2026-05-07 17:31 | 32.16583 | -108.21090 | 37208 ft | 479 kts | 103° |
| 2026-05-07 17:31 | 32.15786 | -108.13321 | 37203 ft | 479 kts | 103° |
| 2026-05-07 17:32 | 32.14972 | -108.05471 | 37207 ft | 482 kts | 104° |
| 2026-05-07 17:32 | 32.14157 | -107.97633 | 37199 ft | 483 kts | 104° |
| 2026-05-07 17:33 | 32.13335 | -107.89807 | 37199 ft | 483 kts | 104° |
| 2026-05-07 17:33 | 32.12509 | -107.81973 | 37191 ft | 484 kts | 104° |
| 2026-05-07 17:34 | 32.11673 | -107.74098 | 37189 ft | 485 kts | 104° |
| 2026-05-07 17:34 | 32.10836 | -107.66239 | 37184 ft | 485 kts | 104° |
| 2026-05-07 17:35 | 32.09992 | -107.58366 | 37182 ft | 486 kts | 104° |
| 2026-05-07 17:35 | 32.09143 | -107.50479 | 37184 ft | 487 kts | 104° |
| 2026-05-07 17:36 | 32.08281 | -107.42549 | 37180 ft | 488 kts | 104° |
| 2026-05-07 17:36 | 32.07420 | -107.34654 | 37181 ft | 488 kts | 105° |
| 2026-05-07 17:37 | 32.06546 | -107.26700 | 37184 ft | 489 kts | 105° |
| 2026-05-07 17:37 | 32.05669 | -107.18758 | 37187 ft | 490 kts | 105° |
| 2026-05-07 17:38 | 32.04787 | -107.10819 | 37185 ft | 490 kts | 105° |
| 2026-05-07 17:38 | 32.03899 | -107.02884 | 37184 ft | 491 kts | 105° |
| 2026-05-07 17:39 | 32.03004 | -106.94933 | 37179 ft | 492 kts | 105° |
| 2026-05-07 17:39 | 32.02103 | -106.86961 | 37180 ft | 493 kts | 105° |
| 2026-05-07 17:40 | 32.01194 | -106.78977 | 37177 ft | 494 kts | 105° |
| 2026-05-07 17:40 | 32.00281 | -106.70991 | 37174 ft | 494 kts | 105° |
| 2026-05-07 17:41 | 31.99357 | -106.62956 | 37180 ft | 494 kts | 105° |
| 2026-05-07 17:41 | 31.98431 | -106.54954 | 37180 ft | 495 kts | 105° |
| 2026-05-07 17:42 | 31.97498 | -106.46924 | 37176 ft | 496 kts | 105° |
| 2026-05-07 17:42 | 31.96563 | -106.38938 | 37173 ft | 497 kts | 105° |
| 2026-05-07 17:43 | 31.95618 | -106.30904 | 37176 ft | 498 kts | 105° |
| 2026-05-07 17:43 | 31.95080 | -106.22704 | 37172 ft | 505 kts | 99° |
| 2026-05-07 17:44 | 31.94955 | -106.14433 | 37187 ft | 507 kts | 98° |
| 2026-05-07 17:44 | 31.94847 | -106.06205 | 37203 ft | 508 kts | 98° |
| 2026-05-07 17:45 | 31.94714 | -105.97859 | 37212 ft | 509 kts | 98° |
| 2026-05-07 17:45 | 31.94572 | -105.89598 | 37212 ft | 509 kts | 98° |
| 2026-05-07 17:46 | 31.94419 | -105.81264 | 37216 ft | 509 kts | 98° |
| 2026-05-07 17:46 | 31.94264 | -105.72997 | 37220 ft | 509 kts | 98° |
| 2026-05-07 17:47 | 31.94102 | -105.64668 | 37214 ft | 508 kts | 98° |
| 2026-05-07 17:47 | 31.93934 | -105.56389 | 37209 ft | 509 kts | 98° |
| 2026-05-07 17:48 | 31.93761 | -105.48087 | 37210 ft | 510 kts | 98° |
| 2026-05-07 17:48 | 31.93584 | -105.39751 | 37211 ft | 509 kts | 98° |
| 2026-05-07 17:49 | 31.93399 | -105.31451 | 37203 ft | 510 kts | 99° |
| 2026-05-07 17:49 | 31.93226 | -105.23128 | 37188 ft | 511 kts | 99° |
| 2026-05-07 17:50 | 31.93049 | -105.14789 | 37179 ft | 511 kts | 99° |
| 2026-05-07 17:50 | 31.92866 | -105.06461 | 37184 ft | 511 kts | 99° |
| 2026-05-07 17:51 | 31.92677 | -104.98157 | 37177 ft | 511 kts | 99° |
| 2026-05-07 17:51 | 31.92484 | -104.89771 | 37189 ft | 512 kts | 99° |
| 2026-05-07 17:52 | 31.92283 | -104.81421 | 37188 ft | 512 kts | 99° |
| 2026-05-07 17:52 | 31.92076 | -104.73062 | 37192 ft | 513 kts | 99° |
| 2026-05-07 17:53 | 31.91862 | -104.64711 | 37191 ft | 514 kts | 99° |
| 2026-05-07 17:53 | 31.91647 | -104.56351 | 37186 ft | 514 kts | 99° |
| 2026-05-07 17:54 | 31.91422 | -104.47962 | 37179 ft | 514 kts | 99° |
| 2026-05-07 17:54 | 31.91192 | -104.39552 | 37168 ft | 514 kts | 99° |
| 2026-05-07 17:55 | 31.90956 | -104.31162 | 37158 ft | 515 kts | 99° |
| 2026-05-07 17:55 | 31.90717 | -104.22771 | 37147 ft | 515 kts | 99° |
| 2026-05-07 17:56 | 31.90469 | -104.14368 | 37153 ft | 516 kts | 99° |
| 2026-05-07 17:56 | 31.90218 | -104.05949 | 37150 ft | 515 kts | 100° |
| 2026-05-07 17:57 | 31.90003 | -103.98970 | 37150 ft | 515 kts | 99° |
| 2026-05-07 17:57 | 31.89694 | -103.89154 | 37148 ft | 517 kts | 99° |
| 2026-05-07 17:58 | 31.89427 | -103.80698 | 37148 ft | 516 kts | 99° |
| 2026-05-07 17:58 | 31.89150 | -103.72276 | 37148 ft | 517 kts | 99° |
| 2026-05-07 17:59 | 31.88868 | -103.63831 | 37151 ft | 518 kts | 99° |
| 2026-05-07 17:59 | 31.88584 | -103.55411 | 37150 ft | 518 kts | 99° |
| 2026-05-07 18:00 | 31.88292 | -103.46951 | 37150 ft | 518 kts | 99° |
| 2026-05-07 18:00 | 31.87995 | -103.38557 | 37150 ft | 519 kts | 99° |
| 2026-05-07 18:01 | 31.87696 | -103.30063 | 37145 ft | 519 kts | 99° |
| 2026-05-07 18:01 | 31.87902 | -103.21529 | 37148 ft | 527 kts | 91° |
| 2026-05-07 18:02 | 31.89516 | -103.08714 | 37148 ft | 531 kts | 86° |
| 2026-05-07 18:03 | 31.90699 | -103.00135 | 37150 ft | 532 kts | 86° |
| 2026-05-07 18:03 | 31.91843 | -102.91582 | 37151 ft | 533 kts | 86° |
| 2026-05-07 18:04 | 31.92972 | -102.82983 | 37152 ft | 534 kts | 86° |
| 2026-05-07 18:04 | 31.94094 | -102.74393 | 37152 ft | 534 kts | 86° |
| 2026-05-07 18:05 | 31.95216 | -102.65736 | 37152 ft | 534 kts | 86° |
| 2026-05-07 18:05 | 31.96326 | -102.57149 | 37154 ft | 534 kts | 86° |
| 2026-05-07 18:06 | 31.97433 | -102.48520 | 37160 ft | 534 kts | 86° |
| 2026-05-07 18:06 | 31.98527 | -102.39937 | 37165 ft | 535 kts | 86° |
| 2026-05-07 18:07 | 31.99627 | -102.31293 | 37163 ft | 535 kts | 87° |
| 2026-05-07 18:07 | 32.00717 | -102.22653 | 37158 ft | 535 kts | 87° |
| 2026-05-07 18:08 | 32.01801 | -102.14002 | 37150 ft | 534 kts | 87° |
| 2026-05-07 18:08 | 32.02882 | -102.05345 | 37152 ft | 535 kts | 87° |
| 2026-05-07 18:09 | 32.03953 | -101.96714 | 37149 ft | 535 kts | 86° |
| 2026-05-07 18:09 | 32.05022 | -101.88053 | 37141 ft | 535 kts | 86° |
| 2026-05-07 18:10 | 32.06084 | -101.79411 | 37137 ft | 535 kts | 87° |
| 2026-05-07 18:10 | 32.07140 | -101.70750 | 37132 ft | 535 kts | 86° |
| 2026-05-07 18:11 | 32.08187 | -101.62103 | 37140 ft | 534 kts | 86° |
| 2026-05-07 18:11 | 32.09227 | -101.53487 | 37136 ft | 534 kts | 86° |
| 2026-05-07 18:12 | 32.10263 | -101.44843 | 37139 ft | 534 kts | 86° |
| 2026-05-07 18:12 | 32.11298 | -101.36161 | 37141 ft | 534 kts | 86° |
| 2026-05-07 18:13 | 32.12319 | -101.27549 | 37129 ft | 534 kts | 87° |
| 2026-05-07 18:13 | 32.13343 | -101.18857 | 37130 ft | 534 kts | 87° |
| 2026-05-07 18:14 | 32.14355 | -101.10221 | 37129 ft | 534 kts | 87° |
| 2026-05-07 18:14 | 32.15358 | -101.01573 | 37130 ft | 534 kts | 87° |
| 2026-05-07 18:15 | 32.16363 | -100.92889 | 37122 ft | 535 kts | 87° |
| 2026-05-07 18:15 | 32.17356 | -100.84248 | 37121 ft | 535 kts | 87° |
| 2026-05-07 18:16 | 32.18351 | -100.75529 | 37122 ft | 535 kts | 86° |
| 2026-05-07 18:16 | 32.19334 | -100.66855 | 37122 ft | 536 kts | 87° |
| 2026-05-07 18:17 | 32.20320 | -100.58130 | 37127 ft | 536 kts | 86° |
| 2026-05-07 18:17 | 32.21296 | -100.49408 | 37127 ft | 537 kts | 86° |
| 2026-05-07 18:18 | 32.22264 | -100.40705 | 37131 ft | 537 kts | 86° |
| 2026-05-07 18:18 | 32.23229 | -100.32021 | 37124 ft | 536 kts | 87° |
| 2026-05-07 18:19 | 32.24188 | -100.23272 | 37126 ft | 537 kts | 87° |
| 2026-05-07 18:19 | 32.25137 | -100.14588 | 37129 ft | 538 kts | 87° |
| 2026-05-07 18:20 | 32.26085 | -100.05856 | 37128 ft | 537 kts | 87° |
| 2026-05-07 18:20 | 32.27023 | -99.97134 | 37136 ft | 537 kts | 87° |
| 2026-05-07 18:21 | 32.27940 | -99.88370 | 37132 ft | 538 kts | 89° |
| 2026-05-07 18:21 | 32.28474 | -99.79624 | 37136 ft | 536 kts | 91° |
| 2026-05-07 18:22 | 32.28915 | -99.70856 | 37132 ft | 536 kts | 91° |
| 2026-05-07 18:22 | 32.29363 | -99.62052 | 37132 ft | 537 kts | 91° |
| 2026-05-07 18:23 | 32.29813 | -99.53318 | 37127 ft | 536 kts | 91° |
| 2026-05-07 18:23 | 32.30040 | -99.48942 | 36847 ft | 532 kts | 91° |
| 2026-05-07 18:23 | 32.30263 | -99.44600 | 35901 ft | 539 kts | 91° |
| 2026-05-07 18:23 | 32.30488 | -99.40122 | 34774 ft | 546 kts | 91° |
| 2026-05-07 18:24 | 32.30711 | -99.35697 | 33828 ft | 546 kts | 91° |
| 2026-05-07 18:24 | 32.30938 | -99.31242 | 32862 ft | 547 kts | 92° |
| 2026-05-07 18:24 | 32.31157 | -99.26760 | 31965 ft | 548 kts | 91° |
| 2026-05-07 18:24 | 32.31373 | -99.22317 | 31130 ft | 548 kts | 91° |
| 2026-05-07 18:25 | 32.31592 | -99.17796 | 30284 ft | 548 kts | 91° |
| 2026-05-07 18:25 | 32.31807 | -99.13346 | 29438 ft | 548 kts | 91° |
| 2026-05-07 18:25 | 32.32024 | -99.08876 | 28727 ft | 546 kts | 91° |
| 2026-05-07 18:25 | 32.32238 | -99.04433 | 28223 ft | 538 kts | 91° |
| 2026-05-07 18:26 | 32.32444 | -99.00072 | 27723 ft | 532 kts | 90° |
| 2026-05-07 18:26 | 32.32647 | -98.95753 | 27203 ft | 526 kts | 90° |
| 2026-05-07 18:26 | 32.32849 | -98.91472 | 26678 ft | 520 kts | 90° |
| 2026-05-07 18:26 | 32.33050 | -98.87253 | 26186 ft | 514 kts | 90° |
| 2026-05-07 18:27 | 32.33246 | -98.83069 | 25669 ft | 508 kts | 89° |
| 2026-05-07 18:27 | 32.33435 | -98.78951 | 25150 ft | 503 kts | 89° |
| 2026-05-07 18:27 | 32.33624 | -98.74860 | 24633 ft | 498 kts | 89° |
| 2026-05-07 18:27 | 32.33809 | -98.70786 | 24124 ft | 493 kts | 88° |
| 2026-05-07 18:28 | 32.33993 | -98.66762 | 23632 ft | 488 kts | 88° |
| 2026-05-07 18:28 | 32.34173 | -98.62802 | 23144 ft | 483 kts | 88° |
| 2026-05-07 18:28 | 32.34348 | -98.58880 | 22637 ft | 479 kts | 88° |
| 2026-05-07 18:28 | 32.34521 | -98.54966 | 22136 ft | 474 kts | 88° |
| 2026-05-07 18:29 | 32.34689 | -98.51135 | 21620 ft | 471 kts | 88° |
| 2026-05-07 18:29 | 32.34860 | -98.47261 | 21108 ft | 467 kts | 88° |
| 2026-05-07 18:29 | 32.35022 | -98.43489 | 20627 ft | 463 kts | 87° |
| 2026-05-07 18:29 | 32.35184 | -98.39692 | 20108 ft | 460 kts | 88° |
| 2026-05-07 18:30 | 32.35343 | -98.35946 | 19608 ft | 457 kts | 87° |
| 2026-05-07 18:30 | 32.35502 | -98.32218 | 19118 ft | 453 kts | 88° |
| 2026-05-07 18:30 | 32.35657 | -98.28532 | 18614 ft | 446 kts | 88° |
| 2026-05-07 18:30 | 32.35808 | -98.24903 | 18133 ft | 434 kts | 88° |
| 2026-05-07 18:31 | 32.35952 | -98.21423 | 17645 ft | 428 kts | 88° |
| 2026-05-07 18:31 | 32.36098 | -98.17918 | 17150 ft | 425 kts | 88° |
| 2026-05-07 18:31 | 32.36240 | -98.14461 | 16660 ft | 423 kts | 88° |
| 2026-05-07 18:31 | 32.36380 | -98.11000 | 16168 ft | 420 kts | 89° |
| 2026-05-07 18:32 | 32.36518 | -98.07539 | 15669 ft | 418 kts | 89° |
| 2026-05-07 18:32 | 32.36654 | -98.04145 | 15165 ft | 416 kts | 89° |
| 2026-05-07 18:32 | 32.36790 | -98.00732 | 14657 ft | 414 kts | 89° |
| 2026-05-07 18:32 | 32.36921 | -97.97381 | 14188 ft | 410 kts | 89° |
| 2026-05-07 18:33 | 32.37053 | -97.94037 | 13903 ft | 398 kts | 89° |
| 2026-05-07 18:33 | 32.37178 | -97.90857 | 13730 ft | 380 kts | 89° |
| 2026-05-07 18:33 | 32.37299 | -97.87772 | 13323 ft | 374 kts | 89° |
| 2026-05-07 18:33 | 32.37418 | -97.84734 | 12891 ft | 365 kts | 89° |
| 2026-05-07 18:34 | 32.37532 | -97.81773 | 12477 ft | 360 kts | 89° |
| 2026-05-07 18:34 | 32.37645 | -97.78859 | 12073 ft | 358 kts | 89° |
| 2026-05-07 18:34 | 32.37758 | -97.75917 | 11655 ft | 357 kts | 88° |
| 2026-05-07 18:34 | 32.37871 | -97.72982 | 11238 ft | 354 kts | 88° |
| 2026-05-07 18:35 | 32.37979 | -97.70133 | 10840 ft | 346 kts | 88° |
| 2026-05-07 18:35 | 32.38085 | -97.67327 | 10497 ft | 340 kts | 88° |
| 2026-05-07 18:35 | 32.38197 | -97.64597 | 10337 ft | 324 kts | 85° |
| 2026-05-07 18:35 | 32.38766 | -97.62086 | 10161 ft | 311 kts | 60° |
| 2026-05-07 18:36 | 32.40105 | -97.60140 | 9820 ft | 306 kts | 40° |
| 2026-05-07 18:36 | 32.41678 | -97.58433 | 9453 ft | 306 kts | 39° |
| 2026-05-07 18:36 | 32.43251 | -97.56746 | 9095 ft | 306 kts | 40° |
| 2026-05-07 18:36 | 32.44815 | -97.55026 | 8738 ft | 302 kts | 40° |
| 2026-05-07 18:37 | 32.46324 | -97.53326 | 8386 ft | 298 kts | 42° |
| 2026-05-07 18:37 | 32.47558 | -97.51411 | 8009 ft | 298 kts | 63° |
| 2026-05-07 18:37 | 32.48084 | -97.49067 | 7662 ft | 295 kts | 82° |
| 2026-05-07 18:37 | 32.48296 | -97.46637 | 7311 ft | 294 kts | 84° |
| 2026-05-07 18:38 | 32.48478 | -97.44248 | 6959 ft | 294 kts | 84° |
| 2026-05-07 18:38 | 32.48674 | -97.41820 | 6601 ft | 293 kts | 83° |
| 2026-05-07 18:38 | 32.48880 | -97.39449 | 6248 ft | 293 kts | 82° |
| 2026-05-07 18:38 | 32.49097 | -97.37047 | 5892 ft | 291 kts | 82° |
| 2026-05-07 18:39 | 32.49317 | -97.34690 | 5634 ft | 287 kts | 82° |
| 2026-05-07 18:39 | 32.49533 | -97.32372 | 5369 ft | 282 kts | 82° |
| 2026-05-07 18:39 | 32.49750 | -97.30063 | 5120 ft | 277 kts | 82° |
| 2026-05-07 18:39 | 32.49958 | -97.27837 | 4989 ft | 271 kts | 83° |
| 2026-05-07 18:40 | 32.50152 | -97.25610 | 4982 ft | 272 kts | 83° |
| 2026-05-07 18:40 | 32.50340 | -97.23376 | 4983 ft | 272 kts | 83° |
| 2026-05-07 18:40 | 32.50523 | -97.21165 | 4983 ft | 272 kts | 83° |
| 2026-05-07 18:40 | 32.50703 | -97.18964 | 4975 ft | 261 kts | 83° |
| 2026-05-07 18:41 | 32.50876 | -97.16878 | 4973 ft | 251 kts | 83° |
| 2026-05-07 18:41 | 32.51044 | -97.14818 | 4978 ft | 251 kts | 83° |
| 2026-05-07 18:41 | 32.51215 | -97.12766 | 4981 ft | 251 kts | 83° |
| 2026-05-07 18:41 | 32.51384 | -97.10707 | 4982 ft | 251 kts | 83° |
| 2026-05-07 18:42 | 32.51768 | -97.08714 | 4967 ft | 248 kts | 61° |
| 2026-05-07 18:42 | 32.52863 | -97.07186 | 4974 ft | 244 kts | 32° |
| 2026-05-07 18:42 | 32.54414 | -97.06480 | 4955 ft | 241 kts | 8° |
| 2026-05-07 18:42 | 32.56104 | -97.06206 | 4972 ft | 242 kts | 7° |
| 2026-05-07 18:43 | 32.57769 | -97.05922 | 4977 ft | 242 kts | 7° |
| 2026-05-07 18:43 | 32.59439 | -97.05691 | 4980 ft | 241 kts | 3° |
| 2026-05-07 18:43 | 32.61124 | -97.05615 | 4980 ft | 241 kts | 0° |
| 2026-05-07 18:43 | 32.62792 | -97.05600 | 4980 ft | 241 kts | 359° |
| 2026-05-07 18:44 | 32.64469 | -97.05595 | 4919 ft | 242 kts | 359° |
| 2026-05-07 18:44 | 32.66155 | -97.05592 | 4671 ft | 241 kts | 360° |
| 2026-05-07 18:44 | 32.67824 | -97.05585 | 4351 ft | 234 kts | 0° |
| 2026-05-07 18:44 | 32.69420 | -97.05578 | 4050 ft | 226 kts | 1° |
| 2026-05-07 18:45 | 32.70964 | -97.05572 | 3756 ft | 218 kts | 1° |
| 2026-05-07 18:45 | 32.72444 | -97.05565 | 3477 ft | 209 kts | 1° |
| 2026-05-07 18:45 | 32.73867 | -97.05559 | 3244 ft | 199 kts | 2° |
| 2026-05-07 18:45 | 32.75212 | -97.05553 | 3050 ft | 188 kts | 2° |
| 2026-05-07 18:46 | 32.76506 | -97.05547 | 2772 ft | 181 kts | 2° |
| 2026-05-07 18:46 | 32.77721 | -97.05540 | 2518 ft | 171 kts | 2° |
| 2026-05-07 18:46 | 32.78899 | -97.05534 | 2314 ft | 163 kts | 2° |
| 2026-05-07 18:46 | 32.80000 | -97.05530 | 2080 ft | 151 kts | 2° |
| 2026-05-07 18:47 | 32.81011 | -97.05525 | 1864 ft | 138 kts | 2° |
| 2026-05-07 18:47 | 32.81942 | -97.05520 | 1693 ft | 133 kts | 2° |
| 2026-05-07 18:47 | 32.82871 | -97.05513 | 1544 ft | 133 kts | 2° |
| 2026-05-07 18:47 | 32.83803 | -97.05508 | 1379 ft | 133 kts | 2° |
| 2026-05-07 18:48 | 32.84729 | -97.05505 | 1213 ft | 132 kts | 3° |
| 2026-05-07 18:48 | 32.85657 | -97.05500 | 1038 ft | 133 kts | 4° |
| 2026-05-07 18:48 | 32.86590 | -97.05494 | 857 ft | 134 kts | 2° |
| 2026-05-07 18:48 | 32.87525 | -97.05487 | 670 ft | 134 kts | 2° |
| 2026-05-07 18:49 | 32.88440 | -97.05483 | 580 ft | 126 kts | 3° |
| 2026-05-07 18:49 | 32.89173 | -97.05476 | 595 ft | 80 kts | 1° |
| 2026-05-07 18:49 | 32.89600 | -97.05475 | 604 ft | 46 kts | 0° |
| 2026-05-07 18:49 | 32.89851 | -97.05442 | 612 ft | 31 kts | 17° |
| 2026-05-07 18:50 | 32.90034 | -97.05333 | 615 ft | 27 kts | 30° |
| 2026-05-07 18:50 | 32.90185 | -97.05275 | 618 ft | 21 kts | 359° |
| 2026-05-07 18:50 | 32.90331 | -97.05274 | 618 ft | 20 kts | 0° |
| 2026-05-07 18:50 | 32.90448 | -97.05273 | 618 ft | 10 kts | 1° |
| 2026-05-07 18:51 | 32.90473 | -97.05222 | 616 ft | 9 kts | 88° |
| 2026-05-07 18:51 | 32.90473 | -97.05135 | 614 ft | 12 kts | 90° |
| 2026-05-07 18:51 | 32.90473 | -97.05019 | 609 ft | 16 kts | 89° |
| 2026-05-07 18:51 | 32.90473 | -97.04878 | 606 ft | 17 kts | 90° |
| 2026-05-07 18:52 | 32.90472 | -97.04750 | 604 ft | 11 kts | 90° |
| 2026-05-07 18:52 | 32.90472 | -97.04672 | 602 ft | 5 kts | 93° |
| 2026-05-07 18:52 | 32.90465 | -97.04617 | 601 ft | 6 kts | 99° |
| 2026-05-07 18:52 | 32.90463 | -97.04597 | 601 ft | 0 kts | 99° |
| 2026-05-07 18:53 | 32.90462 | -97.04594 | 601 ft | 0 kts | 99° |